Time,TemperatureF,DewpointF,PressureIn,WindDirection,WindDirectionDegrees,WindSpeedMPH,WindSpeedGustMPH,Humidity,HourlyPrecipIn,Conditions,Clouds,dailyrainin,SoftwareType,DateUTC
2013-10-19 00:02:00,29.0,12.0,-100.00,ESE,120,1.0,3.0,49,0.00,,,0.00,,2013-10-19 07:02:00,
2013-10-19 00:11:00,29.0,12.0,-100.00,ESE,120,1.0,3.0,49,0.00,,,0.00,,2013-10-19 07:11:00,
2013-10-19 00:42:00,27.0,12.0,-100.00,ESE,110,1.0,3.0,52,0.00,,,0.00,,2013-10-19 07:42:00,
2013-10-19 00:52:00,27.0,12.0,-100.00,ESE,110,1.0,3.0,52,0.00,,,0.00,,2013-10-19 07:52:00,
2013-10-19 01:03:00,27.0,12.0,-100.00,ESE,110,1.0,3.0,52,0.00,,,0.00,,2013-10-19 08:03:00,
2013-10-19 01:11:00,27.0,12.0,-100.00,ESE,110,1.0,3.0,52,0.00,,,0.00,,2013-10-19 08:11:00,
2013-10-19 01:42:00,27.0,13.0,-100.00,ESE,110,2.0,4.0,54,0.00,,,0.00,,2013-10-19 08:42:00,
2013-10-19 01:52:00,27.0,13.0,-100.00,ESE,110,2.0,4.0,54,0.00,,,0.00,,2013-10-19 08:52:00,
2013-10-19 02:01:00,27.0,13.0,-100.00,ESE,110,2.0,4.0,54,0.00,,,0.00,,2013-10-19 09:01:00,
2013-10-19 02:11:00,27.0,13.0,-100.00,ESE,110,2.0,4.0,54,0.00,,,0.00,,2013-10-19 09:11:00,
2013-10-19 02:43:00,26.0,12.0,-100.00,ESE,114,1.0,3.0,54,0.00,,,0.00,,2013-10-19 09:43:00,
2013-10-19 02:54:00,26.0,12.0,-100.00,ESE,114,1.0,3.0,54,0.00,,,0.00,,2013-10-19 09:54:00,
2013-10-19 03:03:00,26.0,12.0,-100.00,ESE,114,1.0,3.0,54,0.00,,,0.00,,2013-10-19 10:03:00,
2013-10-19 03:13:00,26.0,12.0,-100.00,ESE,114,1.0,3.0,54,0.00,,,0.00,,2013-10-19 10:13:00,
2013-10-19 03:42:00,25.0,10.0,-100.00,ESE,103,1.0,3.0,53,0.00,,,0.00,,2013-10-19 10:42:00,
2013-10-19 03:53:00,25.0,10.0,-100.00,ESE,103,1.0,3.0,53,0.00,,,0.00,,2013-10-19 10:53:00,
2013-10-19 04:02:00,25.0,10.0,-100.00,ESE,103,1.0,3.0,53,0.00,,,0.00,,2013-10-19 11:02:00,
2013-10-19 04:12:00,25.0,10.0,-100.00,ESE,103,1.0,3.0,53,0.00,,,0.00,,2013-10-19 11:12:00,
2013-10-19 04:42:00,26.0,13.0,-100.00,SE,132,1.0,4.0,57,0.00,,,0.00,,2013-10-19 11:42:00,
2013-10-19 04:52:00,26.0,13.0,-100.00,SE,132,1.0,4.0,57,0.00,,,0.00,,2013-10-19 11:52:00,
2013-10-19 05:01:00,26.0,13.0,-100.00,SE,132,1.0,4.0,57,0.00,,,0.00,,2013-10-19 12:01:00,
2013-10-19 05:11:00,26.0,13.0,-100.00,SE,132,1.0,4.0,57,0.00,,,0.00,,2013-10-19 12:11:00,
2013-10-19 05:43:00,26.0,14.0,-100.00,ESE,118,2.0,4.0,61,0.00,,,0.00,,2013-10-19 12:43:00,
2013-10-19 05:52:00,26.0,14.0,-100.00,ESE,118,2.0,4.0,61,0.00,,,0.00,,2013-10-19 12:52:00,
2013-10-19 06:01:00,26.0,14.0,-100.00,ESE,118,2.0,4.0,61,0.00,,,0.00,,2013-10-19 13:01:00,
2013-10-19 06:11:00,26.0,14.0,-100.00,ESE,118,2.0,4.0,61,0.00,,,0.00,,2013-10-19 13:11:00,
2013-10-19 06:42:00,25.0,15.0,-100.00,ESE,112,2.0,3.0,65,0.00,,,0.00,,2013-10-19 13:42:00,
2013-10-19 06:52:00,25.0,15.0,-100.00,ESE,112,2.0,3.0,65,0.00,,,0.00,,2013-10-19 13:52:00,
2013-10-19 07:02:00,25.0,15.0,-100.00,ESE,112,2.0,3.0,65,0.00,,,0.00,,2013-10-19 14:02:00,
2013-10-19 07:11:00,25.0,15.0,-100.00,ESE,112,2.0,3.0,65,0.00,,,0.00,,2013-10-19 14:11:00,
2013-10-19 07:42:00,26.0,18.0,-100.00,ESE,122,1.0,3.0,70,0.00,,,0.00,,2013-10-19 14:42:00,
2013-10-19 07:52:00,26.0,18.0,-100.00,ESE,122,1.0,3.0,70,0.00,,,0.00,,2013-10-19 14:52:00,
2013-10-19 08:02:00,26.0,18.0,-100.00,ESE,122,1.0,3.0,70,0.00,,,0.00,,2013-10-19 15:02:00,
2013-10-19 08:11:00,26.0,18.0,-100.00,ESE,122,1.0,3.0,70,0.00,,,0.00,,2013-10-19 15:11:00,
2013-10-19 09:14:00,39.0,27.0,-100.00,SE,137,2.0,3.0,61,0.00,,,0.00,,2013-10-19 16:14:00,
2013-10-19 09:53:00,58.0,22.0,-100.00,NE,41,5.0,7.0,25,0.00,,,0.00,,2013-10-19 16:53:00,
2013-10-19 10:03:00,58.0,22.0,-100.00,NE,41,5.0,7.0,25,0.00,,,0.00,,2013-10-19 17:03:00,
2013-10-19 10:13:00,58.0,22.0,-100.00,NE,41,5.0,7.0,25,0.00,,,0.00,,2013-10-19 17:13:00,
2013-10-19 10:43:00,62.0,15.0,-100.00,NNE,30,4.0,9.0,16,0.00,,,0.00,,2013-10-19 17:43:00,
2013-10-19 10:52:00,62.0,15.0,-100.00,NNE,30,4.0,9.0,16,0.00,,,0.00,,2013-10-19 17:52:00,
2013-10-19 11:02:00,62.0,15.0,-100.00,NNE,30,4.0,9.0,16,0.00,,,0.00,,2013-10-19 18:02:00,
2013-10-19 11:12:00,62.0,15.0,-100.00,NNE,30,4.0,9.0,16,0.00,,,0.00,,2013-10-19 18:12:00,
2013-10-19 11:42:00,64.0,12.0,-100.00,NW,319,5.0,12.0,13,0.00,,,0.00,,2013-10-19 18:42:00,
2013-10-19 11:52:00,64.0,12.0,-100.00,NW,319,5.0,12.0,13,0.00,,,0.00,,2013-10-19 18:52:00,
2013-10-19 12:02:00,64.0,12.0,-100.00,NW,319,5.0,12.0,13,0.00,,,0.00,,2013-10-19 19:02:00,
2013-10-19 12:12:00,64.0,12.0,-100.00,NW,319,5.0,12.0,13,0.00,,,0.00,,2013-10-19 19:12:00,
2013-10-19 12:42:00,63.0,10.0,-100.00,West,280,8.0,15.0,12,0.00,,,0.00,,2013-10-19 19:42:00,
2013-10-19 12:52:00,63.0,10.0,-100.00,West,280,8.0,15.0,12,0.00,,,0.00,,2013-10-19 19:52:00,
2013-10-19 13:03:00,63.0,10.0,-100.00,West,280,8.0,15.0,12,0.00,,,0.00,,2013-10-19 20:03:00,
2013-10-19 13:11:00,63.0,10.0,-100.00,West,280,8.0,15.0,12,0.00,,,0.00,,2013-10-19 20:11:00,
2013-10-19 13:42:00,65.0,11.0,-100.00,North,5,5.0,13.0,12,0.00,,,0.00,,2013-10-19 20:42:00,
2013-10-19 13:52:00,65.0,11.0,-100.00,North,5,5.0,13.0,12,0.00,,,0.00,,2013-10-19 20:52:00,
2013-10-19 14:02:00,65.0,11.0,-100.00,North,5,5.0,13.0,12,0.00,,,0.00,,2013-10-19 21:02:00,
2013-10-19 14:11:00,65.0,11.0,-100.00,North,5,5.0,13.0,12,0.00,,,0.00,,2013-10-19 21:11:00,
2013-10-19 14:44:00,65.0,11.0,-100.00,NNW,337,7.0,13.0,12,0.00,,,-99.99,,2013-10-19 21:44:00,
2013-10-19 14:54:00,65.0,11.0,-100.00,NNW,337,7.0,13.0,12,0.00,,,-99.99,,2013-10-19 21:54:00,
2013-10-19 15:04:00,65.0,11.0,-100.00,NNW,337,7.0,13.0,12,0.00,,,-99.99,,2013-10-19 22:04:00,
2013-10-19 15:14:00,65.0,11.0,-100.00,NNW,337,7.0,13.0,12,0.00,,,-99.99,,2013-10-19 22:14:00,
2013-10-19 15:43:00,65.0,9.0,-100.00,NW,305,6.0,13.0,11,0.00,,,0.00,,2013-10-19 22:43:00,
2013-10-19 15:53:00,65.0,9.0,-100.00,NW,305,6.0,13.0,11,0.00,,,0.00,,2013-10-19 22:53:00,
2013-10-19 16:03:00,65.0,9.0,-100.00,NW,305,6.0,13.0,11,0.00,,,0.00,,2013-10-19 23:03:00,
2013-10-19 16:12:00,65.0,9.0,-100.00,NW,305,6.0,13.0,11,0.00,,,0.00,,2013-10-19 23:12:00,
2013-10-19 16:42:00,63.0,8.0,-100.00,NW,323,7.0,13.0,11,0.00,,,0.00,,2013-10-19 23:42:00,
2013-10-19 16:52:00,63.0,8.0,-100.00,NW,323,7.0,13.0,11,0.00,,,0.00,,2013-10-19 23:52:00,
2013-10-19 17:02:00,63.0,8.0,-100.00,NW,323,7.0,13.0,11,0.00,,,0.00,,2013-10-20 00:02:00,
2013-10-19 17:11:00,63.0,8.0,-100.00,NW,323,7.0,13.0,11,0.00,,,0.00,,2013-10-20 00:11:00,
2013-10-19 17:42:00,61.0,8.0,-100.00,NNW,346,4.0,12.0,12,0.00,,,0.00,,2013-10-20 00:42:00,
2013-10-19 17:52:00,61.0,8.0,-100.00,NNW,346,4.0,12.0,12,0.00,,,0.00,,2013-10-20 00:52:00,
2013-10-19 18:02:00,61.0,8.0,-100.00,NNW,346,4.0,12.0,12,0.00,,,0.00,,2013-10-20 01:02:00,
2013-10-19 18:11:00,61.0,8.0,-100.00,NNW,346,4.0,12.0,12,0.00,,,0.00,,2013-10-20 01:11:00,
2013-10-19 18:52:00,44.0,14.0,-100.00,SE,140,4.0,6.0,29,0.00,,,0.00,,2013-10-20 01:52:00,
2013-10-19 19:02:00,44.0,14.0,-100.00,SE,140,4.0,6.0,29,0.00,,,0.00,,2013-10-20 02:02:00,
2013-10-19 20:11:00,38.0,13.0,-100.00,SSE,147,5.0,6.0,36,0.00,,,0.00,,2013-10-20 03:11:00,
2013-10-19 20:44:00,36.0,13.0,-100.00,SE,139,4.0,7.0,39,0.00,,,0.00,,2013-10-20 03:44:00,
2013-10-19 20:54:00,36.0,13.0,-100.00,SE,139,4.0,7.0,39,0.00,,,0.00,,2013-10-20 03:54:00,
2013-10-19 21:02:00,-999.0,-99.9,-100.00,SE,139,4.0,7.0,-999,-99.99,,,-99.99,,2013-10-20 04:02:00,
2013-10-19 21:14:00,36.0,13.0,-100.00,SE,139,4.0,7.0,39,0.00,,,0.00,,2013-10-20 04:14:00,
2013-10-19 21:44:00,34.0,10.0,-100.00,SE,142,3.0,5.0,36,0.00,,,0.00,,2013-10-20 04:44:00,
2013-10-19 21:54:00,34.0,10.0,-100.00,SE,142,3.0,5.0,36,0.00,,,0.00,,2013-10-20 04:54:00,
2013-10-19 22:04:00,34.0,10.0,-100.00,SE,142,3.0,5.0,36,0.00,,,0.00,,2013-10-20 05:04:00,
2013-10-19 22:13:00,34.0,10.0,-100.00,SE,142,3.0,5.0,36,0.00,,,0.00,,2013-10-20 05:13:00,
2013-10-19 22:43:00,33.0,13.0,-100.00,ESE,117,3.0,6.0,43,0.00,,,0.00,,2013-10-20 05:43:00,
2013-10-19 22:52:00,33.0,13.0,-100.00,ESE,117,3.0,6.0,43,0.00,,,0.00,,2013-10-20 05:52:00,
2013-10-19 23:02:00,33.0,13.0,-100.00,ESE,117,3.0,6.0,43,0.00,,,0.00,,2013-10-20 06:02:00,
2013-10-19 23:12:00,33.0,13.0,-100.00,ESE,117,3.0,6.0,43,0.00,,,0.00,,2013-10-20 06:12:00,
2013-10-19 23:42:00,30.0,13.0,-100.00,SE,125,2.0,3.0,49,0.00,,,0.00,,2013-10-20 06:42:00,
2013-10-19 23:52:00,30.0,13.0,-100.00,SE,125,2.0,3.0,49,0.00,,,0.00,,2013-10-20 06:52:00,